Aultbea, United Kingdom
Current Conditions -  °F | °C
As of 6:20 PM on Sunday 21 Dec 2014 (Local Time) from EGPO Reporting Station
Scattered Clouds Scattered Clouds  
Wind Chill: 40°   Ceiling: Unl
Heat Index: 48°   Visibility: 6mi
Dew Point: 41°   Wind: 25mph
Humidity: 76%   Direction: 250°WSW
Pressure: 29.47"   Gusts: NA
Location:  57.87°N, 5.63°W
Report Text: EGPO 211820Z 25022KT 9999 FEW012 SCT040 09/05 Q0998
Loading
Personal Weather Stations






























Interactive Weather Map New forecast layout! Learn more

10-Day Weather Forecast

Advertisements
Track Severe Weather on mobile